sensor_id;sensor_type;location;lat;lon;timestamp;pressure;altitude;pressure_sealevel;temperature;humidity
27144;BME280;14672;50.250;8.312;2023-02-12T00:01:01;100904.22;;;8.98;69.16
27144;BME280;14672;50.250;8.312;2023-02-12T00:03:27;100913.94;;;9.01;69.41
27144;BME280;14672;50.250;8.312;2023-02-12T00:05:53;100906.25;;;9.01;69.13
27144;BME280;14672;50.250;8.312;2023-02-12T00:08:19;100899.38;;;8.95;69.53
27144;BME280;14672;50.250;8.312;2023-02-12T00:10:44;100903.84;;;9.00;69.30
27144;BME280;14672;50.250;8.312;2023-02-12T00:13:10;100907.47;;;9.00;69.12
27144;BME280;14672;50.250;8.312;2023-02-12T00:15:41;100899.38;;;8.99;69.16
27144;BME280;14672;50.250;8.312;2023-02-12T00:18:07;100903.03;;;8.99;69.14
27144;BME280;14672;50.250;8.312;2023-02-12T00:20:35;100902.59;;;8.97;69.22
27144;BME280;14672;50.250;8.312;2023-02-12T00:23:01;100905.03;;;8.95;69.48
27144;BME280;14672;50.250;8.312;2023-02-12T00:25:27;100908.66;;;8.92;69.82
27144;BME280;14672;50.250;8.312;2023-02-12T00:27:53;100896.13;;;8.96;69.72
27144;BME280;14672;50.250;8.312;2023-02-12T00:30:18;100900.97;;;8.96;69.45
27144;BME280;14672;50.250;8.312;2023-02-12T00:32:45;100900.19;;;8.99;69.57
27144;BME280;14672;50.250;8.312;2023-02-12T00:35:11;100907.06;;;8.98;69.27
27144;BME280;14672;50.250;8.312;2023-02-12T00:37:37;100909.91;;;9.02;69.30
27144;BME280;14672;50.250;8.312;2023-02-12T00:40:05;100901.78;;;9.00;68.83
27144;BME280;14672;50.250;8.312;2023-02-12T00:42:31;100901.78;;;9.00;69.62
27144;BME280;14672;50.250;8.312;2023-02-12T00:44:57;100898.56;;;8.98;69.18
27144;BME280;14672;50.250;8.312;2023-02-12T00:47:22;100896.94;;;8.97;69.19
27144;BME280;14672;50.250;8.312;2023-02-12T00:49:48;100907.88;;;8.95;69.13
27144;BME280;14672;50.250;8.312;2023-02-12T00:52:14;100905.44;;;8.97;69.34
27144;BME280;14672;50.250;8.312;2023-02-12T00:54:40;100913.94;;;8.97;69.21
27144;BME280;14672;50.250;8.312;2023-02-12T00:57:06;100901.78;;;8.93;69.23
27144;BME280;14672;50.250;8.312;2023-02-12T00:59:31;100904.22;;;8.98;69.31
27144;BME280;14672;50.250;8.312;2023-02-12T01:02:00;100905.06;;;9.02;68.83
27144;BME280;14672;50.250;8.312;2023-02-12T01:04:26;100908.28;;;9.01;68.78
27144;BME280;14672;50.250;8.312;2023-02-12T01:06:52;100900.59;;;9.01;68.69
27144;BME280;14672;50.250;8.312;2023-02-12T01:09:17;100907.44;;;8.89;69.07
27144;BME280;14672;50.250;8.312;2023-02-12T01:11:43;100901.78;;;8.96;69.07
27144;BME280;14672;50.250;8.312;2023-02-12T01:14:09;100908.28;;;8.97;69.09
27144;BME280;14672;50.250;8.312;2023-02-12T01:16:35;100906.63;;;8.96;69.13
27144;BME280;14672;50.250;8.312;2023-02-12T01:19:03;100903.81;;;8.96;69.25
27144;BME280;14672;50.250;8.312;2023-02-12T01:21:33;100903.44;;;9.01;68.92
27144;BME280;14672;50.250;8.312;2023-02-12T01:24:00;100896.53;;;8.99;68.99
27144;BME280;14672;50.250;8.312;2023-02-12T01:26:27;100904.63;;;9.00;69.17
27144;BME280;14672;50.250;8.312;2023-02-12T01:28:56;100906.69;;;9.03;69.34
27144;BME280;14672;50.250;8.312;2023-02-12T01:31:27;100903.03;;;8.99;69.10
27144;BME280;14672;50.250;8.312;2023-02-12T01:33:56;100901.00;;;9.00;68.79
27144;BME280;14672;50.250;8.312;2023-02-12T01:36:23;100895.31;;;8.96;69.41
27144;BME280;14672;50.250;8.312;2023-02-12T01:38:49;100906.63;;;8.89;69.19
27144;BME280;14672;50.250;8.312;2023-02-12T01:41:23;100905.81;;;8.92;69.61
27144;BME280;14672;50.250;8.312;2023-02-12T01:46:38;100902.97;;;8.92;69.40
27144;BME280;14672;50.250;8.312;2023-02-12T01:49:31;100900.94;;;8.89;69.86
27144;BME280;14672;50.250;8.312;2023-02-12T01:52:13;100890.47;;;9.00;69.53
27144;BME280;14672;50.250;8.312;2023-02-12T01:54:41;100897.75;;;8.98;69.38
27144;BME280;14672;50.250;8.312;2023-02-12T01:57:08;100893.28;;;8.93;69.60
27144;BME280;14672;50.250;8.312;2023-02-12T01:59:37;100888.81;;;8.92;69.86
27144;BME280;14672;50.250;8.312;2023-02-12T02:02:05;100894.47;;;8.92;69.38
27144;BME280;14672;50.250;8.312;2023-02-12T02:04:39;100891.25;;;8.93;69.48
27144;BME280;14672;50.250;8.312;2023-02-12T02:07:08;100887.19;;;8.91;69.56
27144;BME280;14672;50.250;8.312;2023-02-12T02:09:38;100894.50;;;8.95;69.51
27144;BME280;14672;50.250;8.312;2023-02-12T02:12:05;100893.28;;;8.93;69.65
27144;BME280;14672;50.250;8.312;2023-02-12T02:14:54;100894.47;;;8.92;69.65
27144;BME280;14672;50.250;8.312;2023-02-12T02:17:35;100890.44;;;8.93;70.01
27144;BME280;14672;50.250;8.312;2023-02-12T02:26:32;100885.19;;;8.95;69.55
27144;BME280;14672;50.250;8.312;2023-02-12T02:34:59;100875.50;;;9.00;69.62
27144;BME280;14672;50.250;8.312;2023-02-12T02:37:32;100879.91;;;8.90;69.43
27144;BME280;14672;50.250;8.312;2023-02-12T02:40:28;100890.44;;;8.93;69.64
27144;BME280;14672;50.250;8.312;2023-02-12T02:43:14;100877.50;;;8.95;69.23
27144;BME280;14672;50.250;8.312;2023-02-12T02:45:42;100877.50;;;8.95;69.39
27144;BME280;14672;50.250;8.312;2023-02-12T02:48:28;100878.28;;;8.92;69.74
27144;BME280;14672;50.250;8.312;2023-02-12T02:51:08;100885.19;;;8.95;69.62
27144;BME280;14672;50.250;8.312;2023-02-12T02:53:44;100884.38;;;8.94;70.19
27144;BME280;14672;50.250;8.312;2023-02-12T02:56:16;100880.72;;;8.94;69.85
27144;BME280;14672;50.250;8.312;2023-02-12T02:58:57;100882.34;;;8.95;69.65
27144;BME280;14672;50.250;8.312;2023-02-12T03:01:35;100872.59;;;8.89;69.48
27144;BME280;14672;50.250;8.312;2023-02-12T03:04:14;100872.59;;;8.92;69.49
27144;BME280;14672;50.250;8.312;2023-02-12T03:06:47;100872.22;;;8.94;69.14
27144;BME280;14672;50.250;8.312;2023-02-12T03:09:31;100870.59;;;8.93;69.43
27144;BME280;14672;50.250;8.312;2023-02-12T03:12:05;100875.44;;;8.89;69.52
27144;BME280;14672;50.250;8.312;2023-02-12T03:14:38;100877.47;;;8.92;69.06
27144;BME280;14672;50.250;8.312;2023-02-12T03:17:19;100864.91;;;8.93;69.56
27144;BME280;14672;50.250;8.312;2023-02-12T03:19:53;100867.38;;;8.94;69.40
27144;BME280;14672;50.250;8.312;2023-02-12T03:22:43;100868.97;;;8.92;69.00
27144;BME280;14672;50.250;8.312;2023-02-12T03:25:17;100867.75;;;8.93;69.27
27144;BME280;14672;50.250;8.312;2023-02-12T03:28:15;100869.75;;;8.89;69.47
27144;BME280;14672;50.250;8.312;2023-02-12T03:30:48;100877.06;;;8.86;69.32
27144;BME280;14672;50.250;8.312;2023-02-12T03:36:50;100876.63;;;8.88;69.40
27144;BME280;14672;50.250;8.312;2023-02-12T03:42:20;100872.59;;;8.85;69.65
27144;BME280;14672;50.250;8.312;2023-02-12T03:45:28;100873.41;;;8.86;69.43
27144;BME280;14672;50.250;8.312;2023-02-12T03:48:32;100861.63;;;8.84;69.74
27144;BME280;14672;50.250;8.312;2023-02-12T03:51:17;100872.22;;;8.90;69.44
27144;BME280;14672;50.250;8.312;2023-02-12T03:53:46;100881.94;;;8.93;69.07
27144;BME280;14672;50.250;8.312;2023-02-12T03:56:19;100876.63;;;8.84;69.58
27144;BME280;14672;50.250;8.312;2023-02-12T03:58:47;100886.38;;;8.87;69.44
27144;BME280;14672;50.250;8.312;2023-02-12T04:01:13;100893.25;;;8.86;70.13
27144;BME280;14672;50.250;8.312;2023-02-12T04:03:40;100891.25;;;8.90;69.42
27144;BME280;14672;50.250;8.312;2023-02-12T04:06:26;100888.03;;;8.95;69.71
27144;BME280;14672;50.250;8.312;2023-02-12T04:08:53;100892.88;;;8.94;69.58
27144;BME280;14672;50.250;8.312;2023-02-12T04:14:45;100900.13;;;8.92;69.35
27144;BME280;14672;50.250;8.312;2023-02-12T04:26:23;100913.94;;;8.93;69.98
27144;BME280;14672;50.250;8.312;2023-02-12T04:34:42;100921.22;;;8.94;70.21
27144;BME280;14672;50.250;8.312;2023-02-12T04:37:25;100927.72;;;8.99;70.10
27144;BME280;14672;50.250;8.312;2023-02-12T04:39:53;100915.94;;;8.89;70.65
27144;BME280;14672;50.250;8.312;2023-02-12T04:42:20;100919.22;;;8.95;70.09
27144;BME280;14672;50.250;8.312;2023-02-12T04:44:46;100926.09;;;8.98;69.64
27144;BME280;14672;50.250;8.312;2023-02-12T04:47:14;100917.97;;;8.92;69.63
27144;BME280;14672;50.250;8.312;2023-02-12T04:49:41;100924.44;;;8.93;69.86
27144;BME280;14672;50.250;8.312;2023-02-12T04:52:07;100920.41;;;8.94;69.55
27144;BME280;14672;50.250;8.312;2023-02-12T04:54:33;100916.38;;;8.95;69.98
27144;BME280;14672;50.250;8.312;2023-02-12T04:56:59;100920.44;;;8.98;69.62
27144;BME280;14672;50.250;8.312;2023-02-12T04:59:25;100915.16;;;8.96;69.40
27144;BME280;14672;50.250;8.312;2023-02-12T05:01:51;100913.94;;;9.01;69.81
27144;BME280;14672;50.250;8.312;2023-02-12T05:04:18;100908.69;;;8.99;69.11
27144;BME280;14672;50.250;8.312;2023-02-12T05:06:45;100909.06;;;8.94;69.21
27144;BME280;14672;50.250;8.312;2023-02-12T05:09:17;100917.16;;;8.92;69.72
27144;BME280;14672;50.250;8.312;2023-02-12T05:11:44;100901.78;;;8.93;69.45
27144;BME280;14672;50.250;8.312;2023-02-12T05:14:10;100915.16;;;8.96;69.67
27144;BME280;14672;50.250;8.312;2023-02-12T05:16:35;100908.66;;;8.92;69.97
27144;BME280;14672;50.250;8.312;2023-02-12T05:19:01;100903.41;;;8.90;69.53
27144;BME280;14672;50.250;8.312;2023-02-12T05:21:27;100906.22;;;8.90;69.72
27144;BME280;14672;50.250;8.312;2023-02-12T05:23:53;100910.69;;;8.91;69.42
27144;BME280;14672;50.250;8.312;2023-02-12T05:26:20;100909.06;;;8.94;69.57
27144;BME280;14672;50.250;8.312;2023-02-12T05:28:47;100910.66;;;8.88;69.69
27144;BME280;14672;50.250;8.312;2023-02-12T05:31:17;100912.72;;;8.91;70.08
27144;BME280;14672;50.250;8.312;2023-02-12T05:33:45;100919.59;;;8.90;70.27
27144;BME280;14672;50.250;8.312;2023-02-12T05:36:15;100919.63;;;8.97;69.68
27144;BME280;14672;50.250;8.312;2023-02-12T05:38:41;100913.94;;;8.93;69.95
27144;BME280;14672;50.250;8.312;2023-02-12T05:41:12;100910.69;;;8.91;70.11
27144;BME280;14672;50.250;8.312;2023-02-12T05:43:38;100918.81;;;9.00;70.64
27144;BME280;14672;50.250;8.312;2023-02-12T05:46:05;100912.28;;;8.92;70.30
27144;BME280;14672;50.250;8.312;2023-02-12T05:48:33;100920.00;;;8.92;70.29
27144;BME280;14672;50.250;8.312;2023-02-12T05:51:22;100920.00;;;8.92;70.75
27144;BME280;14672;50.250;8.312;2023-02-12T05:53:50;100917.97;;;8.96;70.03
27144;BME280;14672;50.250;8.312;2023-02-12T05:56:25;100917.97;;;8.96;70.63
27144;BME280;14672;50.250;8.312;2023-02-12T05:58:58;100920.44;;;8.98;70.46
27144;BME280;14672;50.250;8.312;2023-02-12T06:01:28;100922.81;;;8.92;70.56
27144;BME280;14672;50.250;8.312;2023-02-12T06:03:55;100926.09;;;8.94;70.28
27144;BME280;14672;50.250;8.312;2023-02-12T06:06:21;100921.63;;;8.93;70.65
27144;BME280;14672;50.250;8.312;2023-02-12T06:08:48;100928.09;;;8.90;71.20
27144;BME280;14672;50.250;8.312;2023-02-12T06:11:16;100928.91;;;8.94;70.31
27144;BME280;14672;50.250;8.312;2023-02-12T06:13:42;100934.59;;;8.98;70.33
27144;BME280;14672;50.250;8.312;2023-02-12T06:16:26;100934.22;;;8.95;70.98
27144;BME280;14672;50.250;8.312;2023-02-12T06:18:54;100936.59;;;8.93;70.59
27144;BME280;14672;50.250;8.312;2023-02-12T06:21:22;100932.56;;;8.91;70.56
27144;BME280;14672;50.250;8.312;2023-02-12T06:23:49;100928.91;;;8.87;70.92
27144;BME280;14672;50.250;8.312;2023-02-12T06:26:16;100931.31;;;8.88;70.54
27144;BME280;14672;50.250;8.312;2023-02-12T06:28:42;100943.47;;;8.92;70.29
27144;BME280;14672;50.250;8.312;2023-02-12T06:31:35;100941.47;;;8.93;70.83
27144;BME280;14672;50.250;8.312;2023-02-12T06:34:05;100940.66;;;8.92;70.90
27144;BME280;14672;50.250;8.312;2023-02-12T06:36:32;100936.16;;;8.88;70.82
27144;BME280;14672;50.250;8.312;2023-02-12T06:39:00;100949.97;;;8.93;71.58
27144;BME280;14672;50.250;8.312;2023-02-12T06:41:27;100950.75;;;8.86;70.95
27144;BME280;14672;50.250;8.312;2023-02-12T06:43:53;100951.16;;;8.92;70.82
27144;BME280;14672;50.250;8.312;2023-02-12T06:46:19;100958.06;;;8.91;70.93
27144;BME280;14672;50.250;8.312;2023-02-12T06:48:45;100955.22;;;8.91;70.97
27144;BME280;14672;50.250;8.312;2023-02-12T06:51:17;100959.28;;;8.90;71.17
27144;BME280;14672;50.250;8.312;2023-02-12T06:53:46;100958.47;;;8.93;71.02
27144;BME280;14672;50.250;8.312;2023-02-12T06:56:12;100965.75;;;8.90;71.46
27144;BME280;14672;50.250;8.312;2023-02-12T06:58:41;100965.78;;;8.98;71.03
27144;BME280;14672;50.250;8.312;2023-02-12T07:03:46;100961.75;;;8.95;70.93
27144;BME280;14672;50.250;8.312;2023-02-12T07:06:12;100966.97;;;8.93;71.35
27144;BME280;14672;50.250;8.312;2023-02-12T07:08:38;100962.50;;;8.88;71.63
27144;BME280;14672;50.250;8.312;2023-02-12T07:11:05;100959.66;;;8.88;71.76
27144;BME280;14672;50.250;8.312;2023-02-12T07:13:32;100963.31;;;8.89;71.41
27144;BME280;14672;50.250;8.312;2023-02-12T07:16:05;100965.78;;;8.94;71.31
27144;BME280;14672;50.250;8.312;2023-02-12T07:18:32;100976.75;;;8.99;71.40
27144;BME280;14672;50.250;8.312;2023-02-12T07:20:58;100968.25;;;9.03;71.17
27144;BME280;14672;50.250;8.312;2023-02-12T07:23:24;100976.34;;;9.04;71.33
27144;BME280;14672;50.250;8.312;2023-02-12T07:26:03;100978.00;;;9.09;72.21
27144;BME280;14672;50.250;8.312;2023-02-12T07:28:30;100977.16;;;9.05;71.08
27144;BME280;14672;50.250;8.312;2023-02-12T07:31:09;100977.59;;;9.10;71.91
27144;BME280;14672;50.250;8.312;2023-02-12T07:33:35;100979.63;;;9.10;71.45
27144;BME280;14672;50.250;8.312;2023-02-12T07:36:04;100980.47;;;9.17;71.04
27144;BME280;14672;50.250;8.312;2023-02-12T07:38:30;100978.84;;;9.16;71.47
27144;BME280;14672;50.250;8.312;2023-02-12T07:43:40;100986.94;;;9.11;71.50
27144;BME280;14672;50.250;8.312;2023-02-12T07:46:35;100985.31;;;9.17;72.16
27144;BME280;14672;50.250;8.312;2023-02-12T07:49:05;100984.91;;;9.15;71.57
27144;BME280;14672;50.250;8.312;2023-02-12T07:51:33;100993.44;;;9.18;71.17
27144;BME280;14672;50.250;8.312;2023-02-12T07:54:00;100987.00;;;9.28;71.25
27144;BME280;14672;50.250;8.312;2023-02-12T07:56:30;100987.78;;;9.25;70.74
27144;BME280;14672;50.250;8.312;2023-02-12T07:59:00;100984.56;;;9.27;71.22
27144;BME280;14672;50.250;8.312;2023-02-12T08:01:32;100990.25;;;9.30;71.14
27144;BME280;14672;50.250;8.312;2023-02-12T08:04:08;100990.66;;;9.32;71.79
27144;BME280;14672;50.250;8.312;2023-02-12T08:06:40;100997.56;;;9.31;71.58
27144;BME280;14672;50.250;8.312;2023-02-12T08:09:09;100990.28;;;9.34;71.40
27144;BME280;14672;50.250;8.312;2023-02-12T08:11:37;100991.50;;;9.40;71.43
27144;BME280;14672;50.250;8.312;2023-02-12T08:14:04;100994.78;;;9.49;71.54
27144;BME280;14672;50.250;8.312;2023-02-12T08:16:30;100998.44;;;9.50;71.69
27144;BME280;14672;50.250;8.312;2023-02-12T08:19:00;100994.38;;;9.47;72.15
27144;BME280;14672;50.250;8.312;2023-02-12T08:21:27;101003.31;;;9.56;71.80
27144;BME280;14672;50.250;8.312;2023-02-12T08:23:55;101003.34;;;9.63;71.41
27144;BME280;14672;50.250;8.312;2023-02-12T08:26:27;101000.13;;;9.72;71.18
27144;BME280;14672;50.250;8.312;2023-02-12T08:29:00;100998.91;;;9.80;71.13
27144;BME280;14672;50.250;8.312;2023-02-12T08:31:32;100999.75;;;9.84;70.59
27144;BME280;14672;50.250;8.312;2023-02-12T08:33:59;100994.88;;;9.91;70.64
27144;BME280;14672;50.250;8.312;2023-02-12T08:36:37;100995.31;;;9.97;70.97
27144;BME280;14672;50.250;8.312;2023-02-12T08:39:06;100992.91;;;10.06;70.67
27144;BME280;14672;50.250;8.312;2023-02-12T08:41:33;100996.13;;;10.12;70.87
27144;BME280;14672;50.250;8.312;2023-02-12T08:44:02;100996.56;;;10.14;71.48
27144;BME280;14672;50.250;8.312;2023-02-12T08:46:34;100994.97;;;10.16;71.31
27144;BME280;14672;50.250;8.312;2023-02-12T08:49:07;100996.19;;;10.22;71.43
27144;BME280;14672;50.250;8.312;2023-02-12T08:51:40;100999.03;;;10.29;70.76
27144;BME280;14672;50.250;8.312;2023-02-12T08:54:10;101005.09;;;10.31;70.76
27144;BME280;14672;50.250;8.312;2023-02-12T08:56:36;101006.72;;;10.40;70.61
27144;BME280;14672;50.250;8.312;2023-02-12T08:59:04;101003.09;;;10.46;70.60
27144;BME280;14672;50.250;8.312;2023-02-12T09:01:32;101004.31;;;10.49;70.48
27144;BME280;14672;50.250;8.312;2023-02-12T09:03:59;101001.47;;;10.52;70.25
27144;BME280;14672;50.250;8.312;2023-02-12T09:06:26;100999.03;;;10.54;70.13
27144;BME280;14672;50.250;8.312;2023-02-12T09:08:53;101007.56;;;10.58;69.83
27144;BME280;14672;50.250;8.312;2023-02-12T09:11:23;101005.91;;;10.60;70.23
27144;BME280;14672;50.250;8.312;2023-02-12T09:14:01;100987.25;;;10.66;70.26
27144;BME280;14672;50.250;8.312;2023-02-12T09:16:30;100995.34;;;10.71;70.26
27144;BME280;14672;50.250;8.312;2023-02-12T09:18:57;100994.13;;;10.76;70.22
27144;BME280;14672;50.250;8.312;2023-02-12T09:21:23;100994.13;;;10.76;69.62
27144;BME280;14672;50.250;8.312;2023-02-12T09:23:49;100992.91;;;10.80;69.81
27144;BME280;14672;50.250;8.312;2023-02-12T09:26:20;100996.16;;;10.82;69.52
27144;BME280;14672;50.250;8.312;2023-02-12T09:28:48;100999.38;;;10.92;69.60
27144;BME280;14672;50.250;8.312;2023-02-12T09:31:24;101001.81;;;10.93;69.47
27144;BME280;14672;50.250;8.312;2023-02-12T09:33:53;100987.19;;;10.91;69.02
27144;BME280;14672;50.250;8.312;2023-02-12T09:36:20;100997.75;;;10.94;69.26
27144;BME280;14672;50.250;8.312;2023-02-12T09:38:46;100998.56;;;11.02;68.87
27144;BME280;14672;50.250;8.312;2023-02-12T09:41:40;100987.97;;;11.06;69.52
27144;BME280;14672;50.250;8.312;2023-02-12T09:47:32;101003.81;;;11.10;69.22
27144;BME280;14672;50.250;8.312;2023-02-12T09:50:32;101014.34;;;11.20;68.90
27144;BME280;14672;50.250;8.312;2023-02-12T09:53:02;101009.06;;;11.22;68.23
27144;BME280;14672;50.250;8.312;2023-02-12T09:55:31;101004.56;;;11.25;69.03
27144;BME280;14672;50.250;8.312;2023-02-12T09:58:01;101000.06;;;11.27;69.09
27144;BME280;14672;50.250;8.312;2023-02-12T10:00:30;100990.75;;;11.30;68.70
27144;BME280;14672;50.250;8.312;2023-02-12T10:03:01;100997.22;;;11.27;68.91
27144;BME280;14672;50.250;8.312;2023-02-12T10:25:57;100997.94;;;11.53;68.45
27144;BME280;14672;50.250;8.312;2023-02-12T10:28:26;100999.53;;;11.61;68.85
27144;BME280;14672;50.250;8.312;2023-02-12T10:33:47;101004.03;;;11.58;69.09
27144;BME280;14672;50.250;8.312;2023-02-12T10:39:30;100999.50;;;11.68;67.90
27144;BME280;14672;50.250;8.312;2023-02-12T10:42:02;101006.81;;;11.69;67.98
27144;BME280;14672;50.250;8.312;2023-02-12T10:44:31;101004.78;;;11.69;67.72
27144;BME280;14672;50.250;8.312;2023-02-12T10:46:56;100999.50;;;11.71;67.64
27144;BME280;14672;50.250;8.312;2023-02-12T10:49:22;100996.63;;;11.75;67.90
27144;BME280;14672;50.250;8.312;2023-02-12T10:57:24;100988.84;;;11.83;68.45
27144;BME280;14672;50.250;8.312;2023-02-12T10:59:53;100990.47;;;11.87;68.18
27144;BME280;14672;50.250;8.312;2023-02-12T11:02:22;100988.88;;;11.86;68.04
27144;BME280;14672;50.250;8.312;2023-02-12T11:04:50;100982.31;;;11.89;68.11
27144;BME280;14672;50.250;8.312;2023-02-12T11:07:16;100980.66;;;11.92;67.72
27144;BME280;14672;50.250;8.312;2023-02-12T11:09:46;100975.84;;;11.85;68.09
27144;BME280;14672;50.250;8.312;2023-02-12T11:15:17;100977.81;;;11.92;68.46
27144;BME280;14672;50.250;8.312;2023-02-12T11:18:05;100972.91;;;11.96;68.45
27144;BME280;14672;50.250;8.312;2023-02-12T11:20:48;100972.53;;;11.94;67.94
27144;BME280;14672;50.250;8.312;2023-02-12T11:23:40;100967.66;;;11.91;68.09
27144;BME280;14672;50.250;8.312;2023-02-12T11:26:26;100961.94;;;11.94;67.82
27144;BME280;14672;50.250;8.312;2023-02-12T11:29:04;100964.75;;;12.01;67.70
27144;BME280;14672;50.250;8.312;2023-02-12T11:31:41;100959.03;;;12.05;67.46
27144;BME280;14672;50.250;8.312;2023-02-12T11:34:17;100950.06;;;12.03;67.58
27144;BME280;14672;50.250;8.312;2023-02-12T11:36:49;100955.75;;;12.03;67.64
27144;BME280;14672;50.250;8.312;2023-02-12T11:41:56;100961.44;;;12.06;67.55
27144;BME280;14672;50.250;8.312;2023-02-12T11:44:29;100954.06;;;12.12;67.53
27144;BME280;14672;50.250;8.312;2023-02-12T11:47:09;100949.19;;;12.13;67.80
27144;BME280;14672;50.250;8.312;2023-02-12T11:50:27;100952.44;;;12.11;67.52
27144;BME280;14672;50.250;8.312;2023-02-12T11:53:02;100952.41;;;12.15;67.42
27144;BME280;14672;50.250;8.312;2023-02-12T11:55:35;100949.19;;;12.13;67.29
27144;BME280;14672;50.250;8.312;2023-02-12T11:58:20;100942.19;;;12.21;67.28
27144;BME280;14672;50.250;8.312;2023-02-12T12:01:12;100940.16;;;12.21;67.39
27144;BME280;14672;50.250;8.312;2023-02-12T12:06:54;100937.25;;;12.29;66.78
27144;BME280;14672;50.250;8.312;2023-02-12T12:09:44;100933.56;;;12.32;67.31
27144;BME280;14672;50.250;8.312;2023-02-12T12:15:14;100925.81;;;12.32;66.61
27144;BME280;14672;50.250;8.312;2023-02-12T12:21:15;100915.59;;;12.35;66.95
27144;BME280;14672;50.250;8.312;2023-02-12T12:23:54;100909.84;;;12.42;67.24
27144;BME280;14672;50.250;8.312;2023-02-12T12:26:28;100906.56;;;12.43;66.99
27144;BME280;14672;50.250;8.312;2023-02-12T12:31:41;100909.00;;;12.45;66.66
27144;BME280;14672;50.250;8.312;2023-02-12T13:04:24;100897.34;;;12.69;66.29
27144;BME280;14672;50.250;8.312;2023-02-12T13:10:24;100887.97;;;12.69;66.27
27144;BME280;14672;50.250;8.312;2023-02-12T13:19:35;100873.22;;;12.74;66.32
27144;BME280;14672;50.250;8.312;2023-02-12T13:27:33;100869.16;;;12.75;65.96
27144;BME280;14672;50.250;8.312;2023-02-12T13:30:17;100863.19;;;12.62;66.53
27144;BME280;14672;50.250;8.312;2023-02-12T13:33:11;100857.38;;;12.73;66.33
27144;BME280;14672;50.250;8.312;2023-02-12T13:35:43;100863.03;;;12.77;66.25
27144;BME280;14672;50.250;8.312;2023-02-12T13:38:22;100866.28;;;12.75;66.14
27144;BME280;14672;50.250;8.312;2023-02-12T13:40:53;100866.28;;;12.75;66.18
27144;BME280;14672;50.250;8.312;2023-02-12T13:49:15;100874.53;;;12.69;66.76
27144;BME280;14672;50.250;8.312;2023-02-12T13:54:36;100865.03;;;12.80;66.12
27144;BME280;14672;50.250;8.312;2023-02-12T13:57:16;100876.88;;;12.75;66.46
27144;BME280;14672;50.250;8.312;2023-02-12T13:59:53;100865.66;;;12.60;66.91
27144;BME280;14672;50.250;8.312;2023-02-12T14:05:26;100861.03;;;12.74;66.25
27144;BME280;14672;50.250;8.312;2023-02-12T14:08:02;100859.78;;;12.75;66.39
27144;BME280;14672;50.250;8.312;2023-02-12T14:10:36;100859.72;;;12.78;66.45
27144;BME280;14672;50.250;8.312;2023-02-12T14:13:23;100847.50;;;12.81;66.18
27144;BME280;14672;50.250;8.312;2023-02-12T14:15:55;100852.75;;;12.83;66.13
27144;BME280;14672;50.250;8.312;2023-02-12T14:18:24;100850.72;;;12.83;66.15
27144;BME280;14672;50.250;8.312;2023-02-12T14:23:39;100843.69;;;12.91;65.79
27144;BME280;14672;50.250;8.312;2023-02-12T14:26:19;100839.97;;;12.94;66.05
27144;BME280;14672;50.250;8.312;2023-02-12T14:28:58;100844.03;;;12.97;66.05
27144;BME280;14672;50.250;8.312;2023-02-12T14:31:35;100843.22;;;12.96;66.22
27144;BME280;14672;50.250;8.312;2023-02-12T14:39:01;100840.72;;;12.98;66.20
27144;BME280;14672;50.250;8.312;2023-02-12T14:41:38;100837.38;;;13.07;66.14
27144;BME280;14672;50.250;8.312;2023-02-12T14:47:02;100841.09;;;13.04;66.00
27144;BME280;14672;50.250;8.312;2023-02-12T14:49:49;100827.56;;;13.11;65.91
27144;BME280;14672;50.250;8.312;2023-02-12T14:52:31;100835.72;;;13.09;66.00
27144;BME280;14672;50.250;8.312;2023-02-12T14:55:03;100842.22;;;13.13;65.89
27144;BME280;14672;50.250;8.312;2023-02-12T14:57:37;100830.81;;;13.13;65.91
27144;BME280;14672;50.250;8.312;2023-02-12T15:00:28;100836.13;;;13.11;66.09
27144;BME280;14672;50.250;8.312;2023-02-12T15:03:39;100835.25;;;13.14;65.90
27144;BME280;14672;50.250;8.312;2023-02-12T15:06:20;100836.50;;;13.13;65.81
27144;BME280;14672;50.250;8.312;2023-02-12T15:08:57;100843.81;;;13.14;65.75
27144;BME280;14672;50.250;8.312;2023-02-12T15:14:15;100836.53;;;13.10;65.73
27144;BME280;14672;50.250;8.312;2023-02-12T15:20:07;100830.00;;;13.09;65.31
27144;BME280;14672;50.250;8.312;2023-02-12T15:22:39;100837.75;;;13.09;64.41
27144;BME280;14672;50.250;8.312;2023-02-12T15:25:21;100827.16;;;13.09;63.77
27144;BME280;14672;50.250;8.312;2023-02-12T15:27:52;100825.94;;;13.07;63.39
27144;BME280;14672;50.250;8.312;2023-02-12T15:30:24;100832.53;;;13.04;63.09
27144;BME280;14672;50.250;8.312;2023-02-12T15:32:51;100826.34;;;13.09;62.73
27144;BME280;14672;50.250;8.312;2023-02-12T15:35:31;100828.50;;;13.01;63.22
27144;BME280;14672;50.250;8.312;2023-02-12T15:37:58;100825.25;;;12.99;63.04
27144;BME280;14672;50.250;8.312;2023-02-12T15:40:29;100823.16;;;13.03;62.72
27144;BME280;14672;50.250;8.312;2023-02-12T15:43:05;100819.94;;;13.01;62.96
27144;BME280;14672;50.250;8.312;2023-02-12T15:45:50;100819.94;;;13.01;63.04
27144;BME280;14672;50.250;8.312;2023-02-12T15:48:22;100824.78;;;13.04;62.88
27144;BME280;14672;50.250;8.312;2023-02-12T15:51:24;100825.19;;;13.03;63.16
27144;BME280;14672;50.250;8.312;2023-02-12T15:53:51;100826.88;;;13.00;63.05
27144;BME280;14672;50.250;8.312;2023-02-12T15:56:22;100820.41;;;12.96;63.35
27144;BME280;14672;50.250;8.312;2023-02-12T15:58:51;100815.91;;;12.95;63.29
27144;BME280;14672;50.250;8.312;2023-02-12T16:01:22;100815.56;;;12.93;63.25
27144;BME280;14672;50.250;8.312;2023-02-12T16:03:52;100821.31;;;12.90;63.36
27144;BME280;14672;50.250;8.312;2023-02-12T16:06:20;100815.16;;;12.91;63.04
27144;BME280;14672;50.250;8.312;2023-02-12T16:09:18;100814.78;;;12.89;63.33
27144;BME280;14672;50.250;8.312;2023-02-12T16:11:50;100816.38;;;12.90;62.98
27144;BME280;14672;50.250;8.312;2023-02-12T16:14:30;100820.16;;;12.84;63.11